createdAt,value
2018-07-01T00:00:23.795Z,19.30
2018-07-01T00:02:52.692Z,19.30
2018-07-01T00:05:21.572Z,19.20
2018-07-01T00:07:50.469Z,19.10
2018-07-01T00:10:19.364Z,19.00
2018-07-01T00:12:48.321Z,19.00
2018-07-01T00:15:17.221Z,19.10
2018-07-01T00:17:46.159Z,19.10
2018-07-01T00:20:15.065Z,19.00
2018-07-01T00:22:43.952Z,18.90
2018-07-01T00:25:12.836Z,18.70
2018-07-01T00:27:41.750Z,18.60
2018-07-01T00:30:10.648Z,18.60
2018-07-01T00:32:39.543Z,18.70
2018-07-01T00:35:08.450Z,18.60
2018-07-01T00:37:37.343Z,18.40
2018-07-01T00:40:06.237Z,18.40
2018-07-01T00:42:35.157Z,18.60
2018-07-01T00:45:04.298Z,18.50
2018-07-01T00:47:33.185Z,18.30
2018-07-01T00:50:02.424Z,18.20
2018-07-01T00:52:31.303Z,18.10
2018-07-01T00:55:00.247Z,18.10
2018-07-01T00:57:29.128Z,18.00
2018-07-01T00:59:58.045Z,18.00
2018-07-01T01:02:26.936Z,17.90
2018-07-01T01:04:55.821Z,17.80
2018-07-01T01:07:24.756Z,17.70
2018-07-01T01:09:53.635Z,17.60
2018-07-01T01:12:22.528Z,17.50
2018-07-01T01:14:51.452Z,17.50
2018-07-01T01:17:20.357Z,17.40
2018-07-01T01:19:49.258Z,17.30
2018-07-01T01:22:18.124Z,17.40
2018-07-01T01:24:47.028Z,17.40
2018-07-01T01:27:15.909Z,17.20
2018-07-01T01:29:44.810Z,17.10
2018-07-01T01:32:13.709Z,17.00
2018-07-01T01:34:42.593Z,16.90
2018-07-01T01:37:11.499Z,16.80
2018-07-01T01:39:41.296Z,16.80
2018-07-01T01:42:21.515Z,16.90
2018-07-01T01:44:53.032Z,16.70
2018-07-01T01:47:29.665Z,17.00
2018-07-01T01:50:09.288Z,16.80
2018-07-01T01:52:42.077Z,16.80
2018-07-01T01:56:20.540Z,16.50
2018-07-01T02:00:56.604Z,16.50
2018-07-01T02:03:30.456Z,16.40
2018-07-01T02:06:09.530Z,16.30
2018-07-01T02:08:48.765Z,16.20
2018-07-01T02:11:17.655Z,16.20
2018-07-01T02:13:49.754Z,16.20
2018-07-01T02:16:22.313Z,16.30
2018-07-01T02:18:51.203Z,16.40
2018-07-01T02:21:20.159Z,16.40
2018-07-01T02:23:51.815Z,16.30
2018-07-01T02:26:20.697Z,16.30
2018-07-01T02:28:49.580Z,16.30
2018-07-01T02:31:18.475Z,16.20
2018-07-01T02:33:47.340Z,16.40
2018-07-01T02:36:16.277Z,16.40
2018-07-01T02:38:45.156Z,16.50
2018-07-01T02:41:14.105Z,16.50
2018-07-01T02:43:42.991Z,16.40
2018-07-01T02:46:12.569Z,16.40
2018-07-01T02:48:41.492Z,16.30
2018-07-01T02:51:10.442Z,16.20
2018-07-01T02:53:39.468Z,16.00
2018-07-01T02:56:08.268Z,15.90
2018-07-01T02:58:37.153Z,15.90
2018-07-01T03:01:06.056Z,15.80
2018-07-01T03:03:34.916Z,15.80
2018-07-01T03:06:03.819Z,15.90
2018-07-01T03:08:32.704Z,15.80
2018-07-01T03:11:01.592Z,15.70
2018-07-01T03:13:30.468Z,15.70
2018-07-01T03:15:59.367Z,16.00
2018-07-01T03:18:28.986Z,16.00
2018-07-01T03:20:57.867Z,15.80
2018-07-01T03:23:26.743Z,15.80
2018-07-01T03:25:55.622Z,15.70
2018-07-01T03:28:24.487Z,15.50
2018-07-01T03:30:53.373Z,15.40
2018-07-01T03:33:22.261Z,15.40
2018-07-01T03:35:51.132Z,15.30
2018-07-01T03:38:20.009Z,15.20
2018-07-01T03:40:48.876Z,15.10
2018-07-01T03:43:17.779Z,15.10
2018-07-01T03:45:46.724Z,15.00
2018-07-01T03:48:15.608Z,14.90
2018-07-01T03:50:44.480Z,14.90
2018-07-01T03:53:13.363Z,15.00
2018-07-01T03:55:42.258Z,15.30
2018-07-01T03:58:11.170Z,15.20
2018-07-01T04:00:40.044Z,15.10
2018-07-01T04:03:08.966Z,15.10
2018-07-01T04:05:37.909Z,15.20
2018-07-01T04:08:06.794Z,15.20
2018-07-01T04:10:35.692Z,15.20
2018-07-01T04:13:04.576Z,15.40
2018-07-01T04:15:33.477Z,15.50
2018-07-01T04:20:47.448Z,15.20
2018-07-01T04:23:16.995Z,15.30
2018-07-01T04:25:45.955Z,15.60
2018-07-01T04:28:14.957Z,15.60
2018-07-01T04:30:44.617Z,15.70
2018-07-01T04:33:32.085Z,15.80
2018-07-01T04:38:42.624Z,16.00
2018-07-01T04:41:11.671Z,16.00
2018-07-01T04:43:40.947Z,16.10
2018-07-01T04:46:10.169Z,16.00
2018-07-01T04:48:39.242Z,16.20
2018-07-01T04:54:28.318Z,16.30
2018-07-01T04:57:10.162Z,16.30
2018-07-01T04:59:39.186Z,16.30
2018-07-01T05:02:08.247Z,16.50
2018-07-01T05:04:37.214Z,16.60
2018-07-01T05:07:06.308Z,16.60
2018-07-01T05:09:54.204Z,16.80
2018-07-01T05:20:26.809Z,16.90
2018-07-01T05:22:56.034Z,17.00
2018-07-01T05:25:25.302Z,17.20
2018-07-01T05:27:54.732Z,17.30
2018-07-01T05:30:23.949Z,17.50
2018-07-01T05:44:19.932Z,17.90
2018-07-01T05:46:49.246Z,18.10
2018-07-01T05:49:18.238Z,18.20
2018-07-01T05:51:47.489Z,18.20
2018-07-01T05:54:16.550Z,18.30
2018-07-01T05:56:51.435Z,18.40
2018-07-01T05:59:20.479Z,18.30
2018-07-01T06:01:50.520Z,18.50
2018-07-01T06:04:20.632Z,18.60
2018-07-01T06:34:20.058Z,19.50
2018-07-01T06:36:49.020Z,19.50
2018-07-01T06:42:22.761Z,19.70
2018-07-01T06:44:51.711Z,19.80
2018-07-01T06:47:20.917Z,19.80
2018-07-01T06:49:49.867Z,19.90
2018-07-01T06:52:18.848Z,20.00
2018-07-01T06:54:47.854Z,20.10
2018-07-01T06:57:16.838Z,20.20
2018-07-01T06:59:45.769Z,20.20
2018-07-01T07:02:17.928Z,20.30
2018-07-01T07:04:46.856Z,20.50
2018-07-01T07:07:16.474Z,20.40
2018-07-01T07:09:45.415Z,20.50
2018-07-01T07:12:14.379Z,20.70
2018-07-01T07:14:43.362Z,20.60
2018-07-01T07:17:18.158Z,20.90
2018-07-01T07:19:47.150Z,20.90
2018-07-01T07:28:22.392Z,21.10
2018-07-01T07:30:51.547Z,21.20
2018-07-01T07:42:09.108Z,21.60
2018-07-01T07:56:48.969Z,22.00
2018-07-01T08:05:11.492Z,22.20
2018-07-01T08:07:40.453Z,22.30
2018-07-01T08:32:47.996Z,22.80
2018-07-01T08:35:38.320Z,22.80
2018-07-01T08:38:07.240Z,22.80
2018-07-01T08:40:36.120Z,22.90
2018-07-01T08:43:05.053Z,22.90
2018-07-01T08:52:06.128Z,23.20
2018-07-01T09:03:47.241Z,23.40
2018-07-01T09:15:33.894Z,23.70
2018-07-01T09:21:09.662Z,23.70
2018-07-01T09:26:42.265Z,23.70
2018-07-01T09:35:12.106Z,23.80
2018-07-01T09:37:41.223Z,23.80
2018-07-01T09:40:11.256Z,23.90
2018-07-01T09:42:40.285Z,23.90
2018-07-01T09:45:09.339Z,23.90
2018-07-01T09:47:38.280Z,24.00
2018-07-01T09:50:07.254Z,24.10
2018-07-01T09:52:36.334Z,24.20
2018-07-01T09:55:05.569Z,24.20
2018-07-01T09:57:34.516Z,24.20
2018-07-01T10:00:03.473Z,24.30
2018-07-01T10:02:34.012Z,24.40
2018-07-01T10:25:44.020Z,24.70
2018-07-01T10:28:12.910Z,24.70
2018-07-01T10:30:41.792Z,24.70
2018-07-01T10:33:10.677Z,24.70
2018-07-01T10:35:39.563Z,24.70
2018-07-01T10:38:08.447Z,24.70
2018-07-01T10:40:37.443Z,24.80
2018-07-01T10:43:06.376Z,25.00
2018-07-01T10:45:35.287Z,25.00
2018-07-01T10:48:04.213Z,24.90
2018-07-01T10:50:33.138Z,24.80
2018-07-01T10:53:02.029Z,24.80
2018-07-01T10:55:30.948Z,25.00
2018-07-01T10:57:59.848Z,25.10
2018-07-01T11:00:28.769Z,25.20
2018-07-01T11:02:58.004Z,25.30
2018-07-01T11:05:39.364Z,25.30
2018-07-01T11:08:08.261Z,25.30
2018-07-01T11:10:42.809Z,25.30
2018-07-01T11:13:11.733Z,25.30
2018-07-01T11:15:40.682Z,25.50
2018-07-01T11:18:09.600Z,25.50
2018-07-01T11:20:38.696Z,25.50
2018-07-01T11:23:07.606Z,25.60
2018-07-01T11:25:36.534Z,25.60
2018-07-01T11:28:05.464Z,25.60
2018-07-01T11:30:34.409Z,25.70
2018-07-01T11:33:04.236Z,25.80
2018-07-01T11:35:33.183Z,25.80
2018-07-01T11:38:02.133Z,25.90
2018-07-01T11:40:31.061Z,25.90
2018-07-01T11:43:00.001Z,26.00
2018-07-01T11:45:28.986Z,26.10
2018-07-01T11:47:57.954Z,26.10
2018-07-01T11:50:27.060Z,26.20
2018-07-01T11:52:56.006Z,26.30
2018-07-01T11:55:24.932Z,26.30
2018-07-01T11:57:54.166Z,26.20
2018-07-01T12:00:23.091Z,26.20
2018-07-01T12:02:52.736Z,26.20
2018-07-01T12:05:21.734Z,26.30
2018-07-01T12:07:50.898Z,26.30
2018-07-01T12:10:19.956Z,26.30
2018-07-01T12:12:48.880Z,26.40
2018-07-01T12:15:18.033Z,26.50
2018-07-01T12:17:46.996Z,26.70
2018-07-01T12:20:15.945Z,26.70
2018-07-01T12:22:44.880Z,26.70
2018-07-01T12:25:14.006Z,26.90
2018-07-01T12:27:42.941Z,27.00
2018-07-01T12:30:11.936Z,27.10
2018-07-01T12:32:40.990Z,27.10
2018-07-01T12:35:10.665Z,27.20
2018-07-01T12:37:39.588Z,27.30
2018-07-01T12:40:08.492Z,27.10
2018-07-01T12:42:37.394Z,27.10
2018-07-01T12:45:06.325Z,27.10
2018-07-01T12:47:35.242Z,27.20
2018-07-01T12:50:04.291Z,27.30
2018-07-01T12:52:33.188Z,27.40
2018-07-01T12:55:02.142Z,27.40
2018-07-01T12:57:31.029Z,27.60
2018-07-01T12:59:59.920Z,27.50
2018-07-01T13:02:28.826Z,27.60
2018-07-01T13:04:57.707Z,27.30
2018-07-01T13:07:26.610Z,27.40
2018-07-01T13:09:55.541Z,27.60
2018-07-01T13:12:24.467Z,27.40
2018-07-01T13:14:53.383Z,27.60
2018-07-01T13:17:22.286Z,27.60
2018-07-01T13:19:51.211Z,27.80
2018-07-01T13:22:20.105Z,28.00
2018-07-01T13:24:48.997Z,27.80
2018-07-01T13:27:17.912Z,27.60
2018-07-01T13:29:46.892Z,27.80
2018-07-01T13:32:15.771Z,27.90
2018-07-01T13:34:44.675Z,28.00
2018-07-01T13:37:13.568Z,27.80
2018-07-01T13:39:42.460Z,27.90
2018-07-01T13:42:11.398Z,28.10
2018-07-01T13:44:40.294Z,28.20
2018-07-01T13:47:09.445Z,28.10
2018-07-01T13:49:38.395Z,28.10
2018-07-01T13:52:07.355Z,28.00
2018-07-01T13:54:36.257Z,28.10
2018-07-01T13:57:05.456Z,28.10
2018-07-01T13:59:34.306Z,28.20
2018-07-01T14:02:03.224Z,28.30
2018-07-01T14:04:32.132Z,28.50
2018-07-01T14:07:01.024Z,28.60
2018-07-01T14:09:29.940Z,28.60
2018-07-01T14:11:58.848Z,28.60
2018-07-01T14:14:28.384Z,28.40
2018-07-01T14:16:57.352Z,28.30
2018-07-01T14:19:26.254Z,28.40
2018-07-01T14:21:55.145Z,28.50
2018-07-01T14:24:24.024Z,28.70
2018-07-01T14:26:52.930Z,28.80
2018-07-01T14:29:21.789Z,28.70
2018-07-01T14:31:50.673Z,28.70
2018-07-01T14:34:19.564Z,28.50
2018-07-01T14:36:48.446Z,28.60
2018-07-01T14:39:17.326Z,28.40
2018-07-01T14:41:46.220Z,28.80
2018-07-01T14:44:15.098Z,29.50
2018-07-01T14:46:44.009Z,30.60
2018-07-01T14:49:12.941Z,31.70
2018-07-01T14:51:41.823Z,32.10
2018-07-01T14:54:10.699Z,32.60
2018-07-01T14:56:39.591Z,32.70
2018-07-01T14:59:08.473Z,32.90
2018-07-01T15:01:37.360Z,33.40
2018-07-01T15:04:06.244Z,33.70
2018-07-01T15:06:35.163Z,34.20
2018-07-01T15:09:06.469Z,32.50
2018-07-01T15:11:35.360Z,32.70
2018-07-01T15:14:04.468Z,33.60
2018-07-01T15:16:34.245Z,34.10
2018-07-01T15:19:03.163Z,35.00
2018-07-01T15:21:32.191Z,34.90
2018-07-01T15:24:01.090Z,34.20
2018-07-01T15:26:30.044Z,35.20
2018-07-01T15:28:59.009Z,35.20
2018-07-01T15:31:27.905Z,35.80
2018-07-01T15:33:56.791Z,35.90
2018-07-01T15:36:25.691Z,36.40
2018-07-01T15:38:54.591Z,36.80
2018-07-01T15:41:23.480Z,37.40
2018-07-01T15:43:52.381Z,36.80
2018-07-01T15:46:22.278Z,36.90
2018-07-01T15:48:51.177Z,36.00
2018-07-01T15:51:20.071Z,35.90
2018-07-01T15:53:49.699Z,36.00
2018-07-01T15:56:18.608Z,36.30
2018-07-01T15:58:47.515Z,36.70
2018-07-01T16:01:16.473Z,37.60
2018-07-01T16:03:45.412Z,37.70
2018-07-01T16:06:14.334Z,37.70
2018-07-01T16:08:43.272Z,37.40
2018-07-01T16:11:12.227Z,36.60
2018-07-01T16:13:41.125Z,36.00
2018-07-01T16:19:13.073Z,36.60
2018-07-01T16:21:43.578Z,36.00
2018-07-01T16:24:13.131Z,36.20
2018-07-01T16:26:47.592Z,35.80
2018-07-01T16:32:20.958Z,36.00
2018-07-01T16:34:50.033Z,36.20
2018-07-01T16:37:18.969Z,36.10
2018-07-01T16:39:48.002Z,35.80
2018-07-01T16:45:03.822Z,36.00
2018-07-01T16:47:32.764Z,36.40
2018-07-01T16:50:01.714Z,36.70
2018-07-01T16:52:30.679Z,36.60
2018-07-01T16:54:59.897Z,36.40
2018-07-01T16:57:28.847Z,36.60
2018-07-01T16:59:57.776Z,36.40
2018-07-01T17:02:26.751Z,36.20
2018-07-01T17:04:55.688Z,35.90
2018-07-01T17:07:24.647Z,35.00
2018-07-01T17:09:53.592Z,34.20
2018-07-01T17:12:22.544Z,32.50
2018-07-01T17:14:51.425Z,30.80
2018-07-01T17:17:20.316Z,30.00
2018-07-01T17:19:49.873Z,29.30
2018-07-01T17:22:18.837Z,28.60
2018-07-01T17:24:47.659Z,28.40
2018-07-01T17:27:29.565Z,27.60
2018-07-01T17:29:59.093Z,27.70
2018-07-01T17:32:33.605Z,27.50
2018-07-01T17:35:03.018Z,27.30
2018-07-01T17:40:36.868Z,26.60
2018-07-01T17:43:09.352Z,26.60
2018-07-01T17:45:48.772Z,26.30
2018-07-01T17:54:28.286Z,25.90
2018-07-01T17:59:42.708Z,25.80
2018-07-01T18:02:12.732Z,25.70
2018-07-01T18:04:41.897Z,25.60
2018-07-01T18:07:11.125Z,25.40
2018-07-01T18:09:40.716Z,25.40
2018-07-01T18:14:47.630Z,25.40
2018-07-01T18:17:17.153Z,25.30
2018-07-01T18:19:49.557Z,25.20
2018-07-01T18:25:28.487Z,25.10
2018-07-01T18:28:15.016Z,25.00
2018-07-01T18:42:48.999Z,24.60
2018-07-01T18:45:18.997Z,24.70
2018-07-01T18:50:27.953Z,24.60
2018-07-01T18:52:58.922Z,24.40
2018-07-01T18:55:28.548Z,24.30
2018-07-01T19:13:16.655Z,23.90
2018-07-01T19:18:48.076Z,23.70
2018-07-01T19:21:17.211Z,23.50
2018-07-01T19:32:28.164Z,23.50
2018-07-01T19:34:57.143Z,23.30
2018-07-01T19:37:26.119Z,23.40
2018-07-01T19:39:55.010Z,23.30
2018-07-01T19:42:46.955Z,23.30
2018-07-01T19:54:16.455Z,23.00
2018-07-01T20:02:44.103Z,22.90
2018-07-01T20:05:17.540Z,22.70
2018-07-01T20:10:54.155Z,22.80
2018-07-01T20:38:24.260Z,22.10
2018-07-01T20:40:53.143Z,22.10
2018-07-01T20:43:22.054Z,21.90
2018-07-01T20:45:50.938Z,21.80
2018-07-01T20:48:19.860Z,21.80
2018-07-01T20:50:48.745Z,21.80
2018-07-01T20:53:17.641Z,21.60
2018-07-01T20:55:46.533Z,21.60
2018-07-01T20:58:15.811Z,21.50
2018-07-01T21:00:44.701Z,21.40
2018-07-01T21:03:13.593Z,21.40
2018-07-01T21:05:42.521Z,21.30
2018-07-01T21:08:12.475Z,21.20
2018-07-01T21:10:42.040Z,21.30
2018-07-01T21:13:10.943Z,21.10
2018-07-01T21:15:39.845Z,21.10
2018-07-01T21:18:08.720Z,21.00
2018-07-01T21:20:37.660Z,20.90
2018-07-01T21:23:06.567Z,20.80
2018-07-01T21:25:35.448Z,20.70
2018-07-01T21:28:04.347Z,20.60
2018-07-01T21:33:36.763Z,20.70
2018-07-01T21:36:07.603Z,20.60
2018-07-01T21:38:49.326Z,20.50
2018-07-01T21:49:59.018Z,20.20
2018-07-01T21:52:27.944Z,20.20
2018-07-01T21:54:57.353Z,20.00
2018-07-01T22:00:33.630Z,20.00
2018-07-01T22:03:04.063Z,19.80
2018-07-01T22:05:33.608Z,20.00
2018-07-01T22:10:52.892Z,20.00
2018-07-01T22:14:15.338Z,19.90
2018-07-01T22:16:44.833Z,19.80
2018-07-01T22:19:14.759Z,19.80
2018-07-01T22:21:44.077Z,19.90
2018-07-01T22:24:13.890Z,19.80
2018-07-01T22:26:43.160Z,19.80
2018-07-01T22:29:13.966Z,20.00
2018-07-01T22:31:42.906Z,20.00
2018-07-01T22:34:12.971Z,19.90
2018-07-01T22:36:42.729Z,19.80
2018-07-01T22:39:13.809Z,19.70
2018-07-01T22:41:43.568Z,19.80
2018-07-01T22:44:18.675Z,19.60
2018-07-01T22:46:48.121Z,19.60
2018-07-01T22:49:17.057Z,19.60
2018-07-01T22:51:45.979Z,19.40
2018-07-01T22:54:15.006Z,19.30
2018-07-01T22:56:43.984Z,19.40
2018-07-01T22:59:13.500Z,19.30
2018-07-01T23:03:49.991Z,19.30
2018-07-01T23:06:19.006Z,19.00
2018-07-01T23:08:47.902Z,19.00
2018-07-01T23:11:16.971Z,19.00
2018-07-01T23:13:45.909Z,18.90
2018-07-01T23:16:14.811Z,18.90
2018-07-01T23:18:43.694Z,18.80
2018-07-01T23:21:13.088Z,18.80
2018-07-01T23:23:42.113Z,18.80
2018-07-01T23:26:11.296Z,18.70
2018-07-01T23:28:40.315Z,18.70
2018-07-01T23:31:09.564Z,18.60
2018-07-01T23:33:38.469Z,18.50
2018-07-01T23:36:07.508Z,18.40
2018-07-01T23:38:36.445Z,18.40
2018-07-01T23:41:05.396Z,18.40
2018-07-01T23:43:34.323Z,18.30
2018-07-01T23:46:03.245Z,18.30
2018-07-01T23:48:32.146Z,18.20
2018-07-01T23:51:01.044Z,18.30
2018-07-01T23:53:29.932Z,18.20
2018-07-01T23:55:58.909Z,18.10
2018-07-01T23:58:27.793Z,18.10
